Time;durP1;ratioP1;P1;durP2;ratioP2;P2;SDS_P1;SDS_P2;PMS_P1;PMS_P2;Temp;Humidity;BMP_temperature;BMP_pressure;BME280_temperature;BME280_humidity;BME280_pressure;Samples;Min_cycle;Max_cycle;Signal;HPM_P1;HPM_P2
2021/06/06 00:02:05;;;;;;;;;;;;;;;14.76;68.96;97256.95;1751006;82;20107;-87
2021/06/06 00:04:31;;;;;;;;;;;;;;;14.84;68.16;97259.70;1751462;82;20110;-82
2021/06/06 00:06:57;;;;;;;;;;;;;;;14.90;69.46;97267.58;1751676;82;20110;-83
2021/06/06 00:09:23;;;;;;;;;;;;;;;14.95;70.94;97275.92;1752103;82;20111;-87
2021/06/06 00:11:55;;;;;;;;;;;;;;;14.90;68.36;97279.02;1752171;82;20107;-87
2021/06/06 00:14:30;;;;;;;;;;;;;;;14.85;70.42;97289.75;1750489;82;20149;-82
2021/06/06 00:17:02;;;;;;;;;;;;;;;14.83;70.78;97304.00;1730300;82;20340;-84
2021/06/06 00:19:29;;;;;;;;;;;;;;;14.90;72.75;97310.04;1752016;82;20407;-84
2021/06/06 00:21:57;;;;;;;;;;;;;;;14.93;72.77;97324.36;1751868;82;20435;-82
2021/06/06 00:24:27;;;;;;;;;;;;;;;15.00;72.28;97348.00;1751488;82;20419;-88
2021/06/06 00:26:54;;;;;;;;;;;;;;;15.04;73.29;97355.18;1750617;81;20103;-88
2021/06/06 00:29:22;;;;;;;;;;;;;;;15.10;73.33;97361.23;1751001;81;20195;-83
2021/06/06 00:31:49;;;;;;;;;;;;;;;15.09;71.92;97346.28;1750676;81;20180;-84
2021/06/06 00:34:15;;;;;;;;;;;;;;;15.02;71.37;97346.52;1727985;82;20175;-84
2021/06/06 00:36:41;;;;;;;;;;;;;;;14.99;72.83;97343.16;1708674;84;20117;-84
2021/06/06 00:39:09;;;;;;;;;;;;;;;14.91;70.76;97329.79;1683511;84;20127;-81
2021/06/06 00:41:38;;;;;;;;;;;;;;;14.83;69.01;97311.10;1696227;85;20144;-87
2021/06/06 00:44:09;;;;;;;;;;;;;;;14.73;71.91;97293.05;1697499;83;20138;-81
2021/06/06 00:46:36;;;;;;;;;;;;;;;14.64;72.59;97273.02;1701254;83;20130;-85
2021/06/06 00:49:03;;;;;;;;;;;;;;;14.60;71.01;97249.09;1731814;83;20099;-84
2021/06/06 00:51:40;;;;;;;;;;;;;;;14.60;71.45;97241.14;1703838;83;20142;-85
2021/06/06 00:54:12;;;;;;;;;;;;;;;14.60;69.58;97240.28;1735314;83;20439;-85
2021/06/06 00:56:38;;;;;;;;;;;;;;;14.58;71.48;97240.91;1668581;84;20111;-86
2021/06/06 00:59:08;;;;;;;;;;;;;;;14.57;72.58;97241.92;1651253;86;20153;-86
2021/06/06 01:01:37;;;;;;;;;;;;;;;14.57;71.68;97240.09;1651805;86;20135;-86
2021/06/06 01:04:04;;;;;;;;;;;;;;;14.55;74.46;97248.68;1662231;84;20104;-85
2021/06/06 01:06:35;;;;;;;;;;;;;;;14.57;72.82;97268.45;1693889;85;20136;-87
2021/06/06 01:09:07;;;;;;;;;;;;;;;14.58;73.94;97284.69;1692407;85;20143;-83
2021/06/06 01:11:40;;;;;;;;;;;;;;;14.56;73.11;97286.16;1638730;85;20133;-84
2021/06/06 01:14:16;;;;;;;;;;;;;;;14.58;73.11;97271.42;1661074;86;20118;-80
2021/06/06 01:16:55;;;;;;;;;;;;;;;14.55;70.53;97259.29;1617835;86;20170;-86
2021/06/06 01:19:38;;;;;;;;;;;;;;;14.49;70.53;97247.94;1634462;87;20201;-85
2021/06/06 01:22:35;;;;;;;;;;;;;;;14.49;71.60;97255.39;1638097;87;20146;-85
2021/06/06 01:25:21;;;;;;;;;;;;;;;14.51;73.42;97273.83;1607001;88;20145;-85
2021/06/06 01:27:57;;;;;;;;;;;;;;;14.54;74.68;97258.94;1647497;86;20145;-83
2021/06/06 01:30:30;;;;;;;;;;;;;;;14.53;72.38;97244.00;1671753;86;20474;-88
2021/06/06 01:33:06;;;;;;;;;;;;;;;14.48;73.35;97227.70;1648737;86;20434;-88
2021/06/06 01:35:57;;;;;;;;;;;;;;;14.46;73.71;97218.58;1670253;85;20102;-84
2021/06/06 01:38:48;;;;;;;;;;;;;;;14.44;72.85;97219.67;1607141;88;20287;-88
2021/06/06 01:41:18;;;;;;;;;;;;;;;14.38;73.30;97227.74;1645174;87;20173;-88
2021/06/06 01:43:52;;;;;;;;;;;;;;;14.47;74.11;97226.03;1597225;88;20180;-87
2021/06/06 01:46:28;;;;;;;;;;;;;;;14.49;71.68;97225.40;1637117;86;20114;-79
2021/06/06 01:48:56;;;;;;;;;;;;;;;14.43;74.84;97224.66;1613089;85;20438;-87
2021/06/06 01:51:42;;;;;;;;;;;;;;;14.40;74.72;97228.92;1637730;86;20223;-80
2021/06/06 01:54:08;;;;;;;;;;;;;;;14.41;76.62;97225.29;1618129;88;20114;-79
2021/06/06 01:56:40;;;;;;;;;;;;;;;14.43;73.36;97226.81;1615873;87;20163;-82
2021/06/06 01:59:10;;;;;;;;;;;;;;;14.45;74.68;97223.53;1601379;88;20405;-85
2021/06/06 02:01:39;;;;;;;;;;;;;;;14.46;72.07;97227.86;1605848;87;20438;-86
2021/06/06 02:04:09;;;;;;;;;;;;;;;14.37;72.95;97220.27;1655848;86;20412;-80
2021/06/06 02:06:41;;;;;;;;;;;;;;;14.28;77.81;97213.67;1678441;86;20115;-86
2021/06/06 02:09:09;;;;;;;;;;;;;;;14.22;75.19;97219.06;1677857;86;20380;-80
2021/06/06 02:11:42;;;;;;;;;;;;;;;14.21;75.04;97218.20;1645228;87;20150;-80
2021/06/06 02:14:14;;;;;;;;;;;;;;;14.21;75.33;97216.05;1645673;86;20131;-82
2021/06/06 02:16:47;;;;;;;;;;;;;;;14.26;75.19;97214.30;1738321;82;20161;-77
2021/06/06 02:19:15;;;;;;;;;;;;;;;14.28;75.10;97217.15;1733628;81;20125;-79
2021/06/06 02:21:45;;;;;;;;;;;;;;;14.24;72.57;97217.58;1696164;83;20130;-85
2021/06/06 02:24:14;;;;;;;;;;;;;;;14.12;72.85;97206.31;1696757;84;20486;-88
2021/06/06 02:26:53;;;;;;;;;;;;;;;14.05;73.66;97207.36;1695440;85;20440;-78
2021/06/06 02:29:24;;;;;;;;;;;;;;;14.02;73.51;97211.14;1743506;81;20088;-80
2021/06/06 02:31:59;;;;;;;;;;;;;;;13.99;73.76;97216.72;1663179;86;20418;-78
2021/06/06 02:34:45;;;;;;;;;;;;;;;13.92;73.44;97214.30;1671154;86;20425;-80
2021/06/06 02:37:21;;;;;;;;;;;;;;;13.89;73.22;97214.09;1667967;86;20117;-81
2021/06/06 02:39:50;;;;;;;;;;;;;;;13.84;73.69;97212.34;1621556;87;20110;-80
2021/06/06 02:42:20;;;;;;;;;;;;;;;13.80;72.65;97210.97;1594557;89;20440;-85
2021/06/06 02:44:53;;;;;;;;;;;;;;;13.73;73.57;97213.34;1615129;89;20158;-88
2021/06/06 02:47:24;;;;;;;;;;;;;;;13.76;73.50;97211.39;1621475;89;20145;-80
2021/06/06 02:49:54;;;;;;;;;;;;;;;13.74;72.48;97210.19;1633569;87;20209;-80
2021/06/06 02:52:41;;;;;;;;;;;;;;;13.75;73.10;97211.86;1615325;89;20583;-79
2021/06/06 02:55:19;;;;;;;;;;;;;;;13.77;73.43;97216.53;1630536;87;20184;-80
2021/06/06 02:57:51;;;;;;;;;;;;;;;13.79;74.07;97208.44;1641946;87;20150;-81
2021/06/06 03:00:30;;;;;;;;;;;;;;;13.80;73.63;97209.64;1645132;87;20456;-80
2021/06/06 03:03:09;;;;;;;;;;;;;;;13.82;72.40;97210.81;1645161;87;20179;-87
2021/06/06 03:05:37;;;;;;;;;;;;;;;13.81;72.83;97207.81;1622373;87;20471;-85
2021/06/06 03:08:07;;;;;;;;;;;;;;;13.81;72.42;97208.67;1662752;85;20146;-80
2021/06/06 03:10:36;;;;;;;;;;;;;;;13.81;72.71;97207.81;1660766;83;20286;-84
2021/06/06 03:13:11;;;;;;;;;;;;;;;13.80;73.60;97209.64;1718663;84;20181;-87
2021/06/06 03:15:40;;;;;;;;;;;;;;;13.84;74.01;97204.89;1719459;83;20141;-81
2021/06/06 03:18:09;;;;;;;;;;;;;;;13.89;73.75;97204.82;1720920;82;20113;-84
2021/06/06 03:20:45;;;;;;;;;;;;;;;13.91;73.83;97207.31;1747316;82;20156;-85
2021/06/06 03:23:15;;;;;;;;;;;;;;;13.94;73.59;97203.55;1742129;82;20174;-78
2021/06/06 03:26:02;;;;;;;;;;;;;;;13.98;74.06;97200.97;1742012;82;20150;-80
2021/06/06 03:28:32;;;;;;;;;;;;;;;14.04;74.16;97203.89;1742467;81;20108;-80
2021/06/06 03:31:04;;;;;;;;;;;;;;;14.11;73.48;97198.83;1743957;81;20099;-80
2021/06/06 03:33:39;;;;;;;;;;;;;;;14.14;72.97;97196.41;1736822;82;20182;-85
2021/06/06 03:36:07;;;;;;;;;;;;;;;14.15;71.66;97204.71;1716910;83;20094;-80
2021/06/06 03:38:36;;;;;;;;;;;;;;;14.15;73.49;97206.04;1717044;83;20500;-85
2021/06/06 03:41:03;;;;;;;;;;;;;;;14.19;73.72;97201.63;1732195;83;20428;-83
2021/06/06 03:43:34;;;;;;;;;;;;;;;14.29;74.10;97205.56;1734154;82;20155;-83
2021/06/06 03:46:01;;;;;;;;;;;;;;;14.24;72.96;97189.74;1730380;81;20423;-90
2021/06/06 03:48:29;;;;;;;;;;;;;;;14.44;74.47;97213.05;1727264;83;20162;-80
2021/06/06 03:50:56;;;;;;;;;;;;;;;14.64;74.38;97210.67;1713648;83;20183;-88
2021/06/06 03:53:25;;;;;;;;;;;;;;;15.07;75.08;97209.72;1718719;84;20207;-84
2021/06/06 03:55:52;;;;;;;;;;;;;;;15.50;74.06;97201.20;1749392;81;20105;-88
2021/06/06 03:58:19;;;;;;;;;;;;;;;15.88;72.52;97205.85;1755226;82;20137;-88
2021/06/06 04:00:48;;;;;;;;;;;;;;;16.22;73.05;97205.12;1755559;82;20093;-80
2021/06/06 04:03:17;;;;;;;;;;;;;;;16.75;71.78;97206.39;1755274;82;20097;-84
2021/06/06 04:05:45;;;;;;;;;;;;;;;17.19;71.82;97211.56;1751028;81;20140;-86
2021/06/06 04:08:14;;;;;;;;;;;;;;;17.80;70.02;97210.00;1766792;81;20089;-81
2021/06/06 04:10:51;;;;;;;;;;;;;;;18.30;69.20;97208.16;1766787;81;20097;-85
2021/06/06 04:13:17;;;;;;;;;;;;;;;18.73;67.96;97215.38;1767350;81;20149;-86
2021/06/06 04:15:44;;;;;;;;;;;;;;;19.09;67.44;97214.11;1756055;81;20189;-84
2021/06/06 04:18:20;;;;;;;;;;;;;;;19.61;67.44;97211.30;1766429;81;20089;-82
2021/06/06 04:20:48;;;;;;;;;;;;;;;20.09;64.42;97207.61;1767319;81;20109;-80
2021/06/06 04:23:14;;;;;;;;;;;;;;;20.50;63.70;97209.88;1759560;81;20116;-86
2021/06/06 04:25:42;;;;;;;;;;;;;;;20.79;63.34;97210.92;1758578;81;20121;-82
2021/06/06 04:28:09;;;;;;;;;;;;;;;21.02;64.07;97215.35;1747040;81;20389;-82
2021/06/06 04:30:38;;;;;;;;;;;;;;;21.35;58.60;97214.91;1720887;82;20404;-81
2021/06/06 04:33:08;;;;;;;;;;;;;;;21.65;57.36;97212.98;1742818;82;20412;-85
2021/06/06 04:35:36;;;;;;;;;;;;;;;22.02;58.09;97215.59;1699562;83;20487;-80
2021/06/06 04:38:06;;;;;;;;;;;;;;;22.33;59.13;97217.59;1694242;85;20455;-79
2021/06/06 04:40:34;;;;;;;;;;;;;;;22.68;57.42;97214.45;1695769;83;20450;-81
2021/06/06 04:43:04;;;;;;;;;;;;;;;22.77;57.86;97216.45;1701449;84;20170;-85
2021/06/06 04:45:30;;;;;;;;;;;;;;;22.56;53.00;97217.36;1716834;83;20099;-81
2021/06/06 04:48:16;;;;;;;;;;;;;;;22.18;55.75;97216.34;1718022;81;20205;-83
2021/06/06 04:50:44;;;;;;;;;;;;;;;22.21;54.76;97219.45;1683174;84;20126;-81
2021/06/06 04:53:11;;;;;;;;;;;;;;;22.02;53.93;97218.77;1726515;82;20110;-87
2021/06/06 04:55:37;;;;;;;;;;;;;;;21.98;56.23;97219.19;1741950;82;20099;-80
2021/06/06 04:58:04;;;;;;;;;;;;;;;21.52;54.64;97224.38;1737087;81;20100;-79
2021/06/06 05:00:34;;;;;;;;;;;;;;;20.87;55.88;97222.88;1701255;84;20142;-81
2021/06/06 05:03:02;;;;;;;;;;;;;;;20.40;56.84;97221.35;1701580;84;20130;-85
2021/06/06 05:05:30;;;;;;;;;;;;;;;19.98;58.08;97224.91;1701506;84;20126;-79
2021/06/06 05:07:58;;;;;;;;;;;;;;;19.78;58.93;97225.36;1701793;84;20134;-83
2021/06/06 05:10:26;;;;;;;;;;;;;;;20.01;58.58;97225.90;1736285;83;20147;-83
2021/06/06 05:12:53;;;;;;;;;;;;;;;20.36;57.68;97227.58;1738856;81;20119;-81
2021/06/06 05:15:21;;;;;;;;;;;;;;;20.28;57.25;97230.34;1738834;81;20108;-88
2021/06/06 05:17:48;;;;;;;;;;;;;;;20.04;58.14;97230.05;1738308;81;20103;-82
2021/06/06 05:20:18;;;;;;;;;;;;;;;19.77;58.47;97234.39;1712605;81;20125;-82
2021/06/06 05:22:45;;;;;;;;;;;;;;;19.28;58.99;97225.37;1693572;85;20419;-87
2021/06/06 05:25:13;;;;;;;;;;;;;;;18.75;60.09;97203.70;1695056;83;20443;-82
2021/06/06 05:27:41;;;;;;;;;;;;;;;18.74;60.77;97237.59;1694367;85;20150;-80
2021/06/06 05:30:10;;;;;;;;;;;;;;;18.43;61.40;97232.98;1746893;82;20423;-87
2021/06/06 05:32:37;;;;;;;;;;;;;;;18.34;62.02;97234.82;1748250;82;20152;-79
2021/06/06 05:35:05;;;;;;;;;;;;;;;18.32;62.96;97234.18;1742069;80;20214;-86
2021/06/06 05:37:32;;;;;;;;;;;;;;;18.25;63.34;97239.84;1741736;82;20160;-79
2021/06/06 05:39:58;;;;;;;;;;;;;;;18.09;62.51;97236.70;1742340;82;20141;-80
2021/06/06 05:42:25;;;;;;;;;;;;;;;18.13;62.54;97240.69;1744518;82;20174;-85
2021/06/06 05:44:51;;;;;;;;;;;;;;;18.13;63.20;97243.87;1748885;81;20138;-83
2021/06/06 05:47:19;;;;;;;;;;;;;;;17.96;63.51;97243.84;1749381;82;20091;-80
2021/06/06 05:49:46;;;;;;;;;;;;;;;18.03;63.06;97255.54;1749027;82;20111;-86
2021/06/06 05:52:14;;;;;;;;;;;;;;;17.98;63.24;97255.19;1749016;82;20114;-79
2021/06/06 05:54:40;;;;;;;;;;;;;;;17.87;63.41;97258.14;1751803;82;20127;-81
2021/06/06 05:57:06;;;;;;;;;;;;;;;17.86;63.21;97261.84;1752498;82;20099;-81
2021/06/06 05:59:33;;;;;;;;;;;;;;;17.66;63.66;97262.63;1752616;82;20161;-82
2021/06/06 06:01:59;;;;;;;;;;;;;;;17.33;63.99;97272.70;1752837;82;20392;-90
2021/06/06 06:04:25;;;;;;;;;;;;;;;17.13;64.89;97266.82;1749816;82;20118;-84
2021/06/06 06:06:52;;;;;;;;;;;;;;;17.04;65.50;97264.61;1749499;82;20368;-82
2021/06/06 06:09:18;;;;;;;;;;;;;;;17.20;65.94;97267.02;1749047;82;20536;-83
2021/06/06 06:11:44;;;;;;;;;;;;;;;17.46;64.75;97262.91;1748964;82;20392;-79
2021/06/06 06:14:12;;;;;;;;;;;;;;;17.43;64.04;97261.41;1750740;82;20104;-84
2021/06/06 06:16:39;;;;;;;;;;;;;;;17.41;64.12;97263.40;1749021;81;20099;-81
2021/06/06 06:19:07;;;;;;;;;;;;;;;17.58;64.00;97264.80;1749298;82;20151;-80
2021/06/06 06:21:35;;;;;;;;;;;;;;;17.52;64.10;97263.61;1748938;82;20506;-85
2021/06/06 06:24:02;;;;;;;;;;;;;;;17.61;64.00;97264.45;1751459;82;20191;-80
2021/06/06 06:26:30;;;;;;;;;;;;;;;17.66;63.90;97260.81;1748892;82;20107;-80
2021/06/06 06:29:10;;;;;;;;;;;;;;;17.85;63.87;97257.50;1704750;82;20416;-84
2021/06/06 06:31:41;;;;;;;;;;;;;;;18.08;63.65;97259.86;1749509;82;20147;-82
2021/06/06 06:34:09;;;;;;;;;;;;;;;18.19;62.76;97256.01;1749883;82;20155;-82
2021/06/06 06:36:35;;;;;;;;;;;;;;;18.45;62.41;97253.67;1750750;82;20111;-85
2021/06/06 06:39:03;;;;;;;;;;;;;;;19.22;62.07;97252.28;1726939;82;20400;-87
2021/06/06 06:41:30;;;;;;;;;;;;;;;20.09;59.55;97245.89;1748937;82;20164;-82
2021/06/06 06:43:57;;;;;;;;;;;;;;;20.60;59.01;97249.27;1749233;82;20107;-80
2021/06/06 06:46:24;;;;;;;;;;;;;;;21.18;56.95;97247.30;1749041;82;20115;-82
2021/06/06 06:48:50;;;;;;;;;;;;;;;21.86;55.75;97241.33;1748985;82;20159;-82
2021/06/06 06:51:16;;;;;;;;;;;;;;;22.23;54.74;97238.04;1749026;82;20152;-79
2021/06/06 06:53:43;;;;;;;;;;;;;;;22.29;53.50;97246.16;1752488;81;20144;-80
2021/06/06 06:56:09;;;;;;;;;;;;;;;22.41;53.88;97235.73;1742431;82;20193;-81
2021/06/06 06:58:36;;;;;;;;;;;;;;;22.38;51.98;97232.09;1747814;82;20427;-86
2021/06/06 07:01:02;;;;;;;;;;;;;;;21.98;51.81;97239.31;1748470;82;20384;-86
2021/06/06 07:03:32;;;;;;;;;;;;;;;21.89;51.60;97239.61;1742420;82;20099;-81
2021/06/06 07:06:01;;;;;;;;;;;;;;;21.51;52.11;97228.59;1742608;82;20099;-85
2021/06/06 07:08:30;;;;;;;;;;;;;;;21.27;52.72;97228.42;1742448;82;20140;-82
2021/06/06 07:10:57;;;;;;;;;;;;;;;20.98;53.26;97228.27;1743494;82;20107;-81
2021/06/06 07:13:24;;;;;;;;;;;;;;;20.76;53.99;97227.35;1750138;82;20114;-85
2021/06/06 07:15:51;;;;;;;;;;;;;;;20.85;54.20;97228.92;1752767;81;20094;-85
2021/06/06 07:18:20;;;;;;;;;;;;;;;21.27;53.47;97229.23;1721450;82;20126;-80
2021/06/06 07:20:52;;;;;;;;;;;;;;;21.41;53.30;97228.88;1743933;81;20399;-82
2021/06/06 07:23:18;;;;;;;;;;;;;;;21.49;51.54;97227.42;1742260;82;20180;-80
2021/06/06 07:25:45;;;;;;;;;;;;;;;21.53;52.38;97228.72;1744623;82;20171;-79
2021/06/06 07:28:14;;;;;;;;;;;;;;;22.07;52.21;97220.39;1725762;82;20107;-83
2021/06/06 07:30:48;;;;;;;;;;;;;;;22.44;50.05;97222.45;1732197;82;20123;-81
2021/06/06 07:33:21;;;;;;;;;;;;;;;23.05;50.46;97219.08;1748812;81;20596;-82
2021/06/06 07:35:47;;;;;;;;;;;;;;;23.41;48.80;97212.31;1752755;82;20127;-80
2021/06/06 07:38:13;;;;;;;;;;;;;;;23.64;50.00;97215.98;1736229;82;20119;-81
2021/06/06 07:40:43;;;;;;;;;;;;;;;24.04;47.93;97220.61;1723991;83;20091;-84
2021/06/06 07:43:11;;;;;;;;;;;;;;;23.97;44.59;97224.14;1724023;81;20443;-81
2021/06/06 07:45:38;;;;;;;;;;;;;;;24.08;47.12;97221.34;1737444;81;20373;-80
2021/06/06 07:48:05;;;;;;;;;;;;;;;24.08;47.19;97220.53;1738335;82;20095;-81
2021/06/06 07:50:33;;;;;;;;;;;;;;;23.87;46.75;97220.99;1738443;81;20103;-82
2021/06/06 07:52:59;;;;;;;;;;;;;;;23.69;46.30;97219.73;1738201;83;20152;-80
2021/06/06 07:55:28;;;;;;;;;;;;;;;23.61;47.75;97217.23;1728885;81;20415;-77
2021/06/06 07:57:54;;;;;;;;;;;;;;;24.09;46.48;97209.54;1735555;83;20111;-85
2021/06/06 08:00:24;;;;;;;;;;;;;;;24.47;45.99;97215.62;1749456;81;20127;-82
2021/06/06 08:02:50;;;;;;;;;;;;;;;24.47;43.77;97210.74;1740924;82;20104;-86
2021/06/06 08:05:18;;;;;;;;;;;;;;;24.59;45.09;97221.20;1733070;81;20099;-81
2021/06/06 08:07:44;;;;;;;;;;;;;;;24.49;43.33;97227.53;1741078;82;20566;-80
2021/06/06 08:10:12;;;;;;;;;;;;;;;24.03;43.69;97232.41;1738530;82;20099;-80
2021/06/06 08:12:38;;;;;;;;;;;;;;;23.94;45.05;97227.23;1738731;81;20384;-79
2021/06/06 08:15:06;;;;;;;;;;;;;;;24.08;43.66;97224.56;1735512;81;20499;-81
2021/06/06 08:17:32;;;;;;;;;;;;;;;24.13;42.81;97233.65;1738423;82;20175;-82
2021/06/06 08:19:58;;;;;;;;;;;;;;;24.01;42.98;97227.25;1738336;81;20107;-86
2021/06/06 08:22:24;;;;;;;;;;;;;;;23.57;44.35;97232.63;1741740;81;20554;-86
2021/06/06 08:24:50;;;;;;;;;;;;;;;23.24;44.82;97229.63;1734448;81;20153;-82
2021/06/06 08:27:18;;;;;;;;;;;;;;;23.05;45.20;97228.98;1715262;83;20436;-81
2021/06/06 08:29:44;;;;;;;;;;;;;;;22.84;45.42;97222.68;1743506;81;20191;-81
2021/06/06 08:32:11;;;;;;;;;;;;;;;23.31;44.87;97226.12;1728084;83;20119;-84
2021/06/06 08:34:37;;;;;;;;;;;;;;;23.92;46.09;97226.57;1724242;81;20099;-86
2021/06/06 08:37:04;;;;;;;;;;;;;;;24.33;44.87;97225.59;1730323;83;20099;-81
2021/06/06 08:39:32;;;;;;;;;;;;;;;24.38;43.23;97224.97;1734697;83;20092;-80
2021/06/06 08:42:07;;;;;;;;;;;;;;;23.73;42.43;97225.52;1738598;82;20091;-82
2021/06/06 08:44:36;;;;;;;;;;;;;;;23.61;43.64;97221.77;1738570;82;20698;-85
2021/06/06 08:47:18;;;;;;;;;;;;;;;23.78;44.66;97225.72;1736512;82;20161;-81
2021/06/06 08:49:48;;;;;;;;;;;;;;;23.61;44.35;97220.42;1732259;83;20516;-84
2021/06/06 08:52:37;;;;;;;;;;;;;;;23.30;44.56;97221.27;1732592;81;20099;-80
2021/06/06 08:55:28;;;;;;;;;;;;;;;23.17;44.77;97226.05;1732070;83;20435;-80
2021/06/06 08:58:00;;;;;;;;;;;;;;;23.32;44.41;97220.56;1735993;83;20115;-82
2021/06/06 09:00:35;;;;;;;;;;;;;;;23.32;44.86;97227.28;1671615;83;20110;-87
2021/06/06 09:03:04;;;;;;;;;;;;;;;23.23;44.83;97223.93;1734294;81;20364;-80
2021/06/06 09:05:37;;;;;;;;;;;;;;;23.10;43.96;97219.83;1734579;83;20183;-80
2021/06/06 09:08:09;;;;;;;;;;;;;;;23.31;45.08;97222.94;1724461;83;20099;-83
2021/06/06 09:10:39;;;;;;;;;;;;;;;23.63;44.46;97213.80;1736855;83;20138;-80
2021/06/06 09:13:09;;;;;;;;;;;;;;;23.90;44.58;97219.21;1730429;82;20460;-82
2021/06/06 09:15:36;;;;;;;;;;;;;;;23.55;43.76;97219.37;1737609;81;20130;-78
2021/06/06 09:18:17;;;;;;;;;;;;;;;23.19;44.91;97217.81;1742031;82;20111;-79
2021/06/06 09:20:44;;;;;;;;;;;;;;;22.96;45.60;97218.09;1699871;83;20132;-81
2021/06/06 09:23:16;;;;;;;;;;;;;;;22.51;46.73;97213.92;1722578;83;20108;-80
2021/06/06 09:25:45;;;;;;;;;;;;;;;22.31;46.98;97218.61;1751484;82;20259;-83
2021/06/06 09:28:23;;;;;;;;;;;;;;;22.46;46.98;97216.35;1756710;82;20181;-81
2021/06/06 09:31:02;;;;;;;;;;;;;;;22.71;46.78;97209.19;1747768;81;20143;-85
2021/06/06 09:33:50;;;;;;;;;;;;;;;22.75;46.08;97184.91;1741651;82;20175;-87
2021/06/06 09:36:19;;;;;;;;;;;;;;;22.52;45.44;97215.59;1714570;83;20409;-82
2021/06/06 09:38:48;;;;;;;;;;;;;;;21.94;46.23;97210.38;1733663;82;20455;-87
2021/06/06 09:41:20;;;;;;;;;;;;;;;21.77;46.84;97205.24;1741505;82;20428;-82
2021/06/06 09:44:02;;;;;;;;;;;;;;;22.01;47.64;97201.86;1742404;82;20108;-91
2021/06/06 09:46:35;;;;;;;;;;;;;;;22.08;46.74;97205.42;1744863;80;20099;-81
2021/06/06 09:49:26;;;;;;;;;;;;;;;22.16;47.47;97205.80;1739227;82;20151;-82
2021/06/06 09:51:55;;;;;;;;;;;;;;;22.29;46.79;97211.78;1733746;81;20103;-85
2021/06/06 09:54:30;;;;;;;;;;;;;;;22.23;46.75;97209.86;1736274;81;20112;-81
2021/06/06 09:57:00;;;;;;;;;;;;;;;22.02;46.53;97213.41;1738198;82;20134;-83
2021/06/06 09:59:33;;;;;;;;;;;;;;;21.96;47.12;97204.28;1746913;82;20107;-82
2021/06/06 10:02:12;;;;;;;;;;;;;;;22.14;47.39;97204.63;1745977;82;20095;-83
2021/06/06 10:04:42;;;;;;;;;;;;;;;22.39;46.36;97220.82;1741359;82;20155;-81
2021/06/06 10:07:29;;;;;;;;;;;;;;;22.21;46.17;97208.72;1742300;81;20123;-82
2021/06/06 10:09:57;;;;;;;;;;;;;;;22.38;46.03;97207.92;1750518;82;20220;-78
2021/06/06 10:12:39;;;;;;;;;;;;;;;22.49;45.68;97196.35;1764171;80;20462;-79
2021/06/06 10:15:01;;;;;;;;;;;;;;;22.37;45.96;97210.78;1778961;80;20119;-79
2021/06/06 10:17:40;;;;;;;;;;;;;;;22.12;46.04;97205.36;1780339;80;20162;-84
2021/06/06 10:20:15;;;;;;;;;;;;;;;22.07;45.98;97202.41;1781994;80;20162;-80
2021/06/06 10:22:45;;;;;;;;;;;;;;;22.03;44.81;97198.48;1772249;80;20190;-83
2021/06/06 10:25:16;;;;;;;;;;;;;;;22.15;45.08;97192.06;1781022;80;20165;-80
2021/06/06 10:27:45;;;;;;;;;;;;;;;22.25;44.87;97197.08;1781162;80;21114;-82
2021/06/06 10:30:16;;;;;;;;;;;;;;;22.27;44.64;97198.53;1781375;80;20133;-83
2021/06/06 10:32:45;;;;;;;;;;;;;;;22.25;45.40;97193.05;1780168;80;20254;-86
2021/06/06 10:35:14;;;;;;;;;;;;;;;22.53;45.57;97189.05;1781599;80;20475;-82
2021/06/06 10:37:43;;;;;;;;;;;;;;;22.53;44.50;97183.68;1750199;80;20126;-80
2021/06/06 10:40:15;;;;;;;;;;;;;;;22.49;45.27;97189.64;1734056;82;20230;-80
2021/06/06 10:42:51;;;;;;;;;;;;;;;22.39;45.05;97183.23;1725126;82;20586;-79
2021/06/06 10:45:27;;;;;;;;;;;;;;;22.35;44.20;97186.01;1727362;83;20133;-80
2021/06/06 10:47:57;;;;;;;;;;;;;;;22.22;44.79;97180.85;1736749;82;20171;-80
2021/06/06 10:50:30;;;;;;;;;;;;;;;22.15;45.74;97184.83;1728572;83;20139;-80
2021/06/06 10:53:14;;;;;;;;;;;;;;;22.07;44.94;97186.84;1736545;81;20132;-83
2021/06/06 10:55:50;;;;;;;;;;;;;;;22.03;44.05;97184.21;1693705;83;20134;-83
2021/06/06 10:58:19;;;;;;;;;;;;;;;21.97;43.83;97180.45;1736967;81;20525;-81
2021/06/06 11:00:58;;;;;;;;;;;;;;;22.21;43.97;97178.38;1714472;82;20146;-79
2021/06/06 11:03:27;;;;;;;;;;;;;;;22.51;44.39;97180.84;1709663;82;20174;-83
2021/06/06 11:05:57;;;;;;;;;;;;;;;22.77;44.05;97174.30;1739272;82;20187;-79
2021/06/06 11:08:31;;;;;;;;;;;;;;;23.04;42.56;97173.57;1730461;82;20158;-81
2021/06/06 11:11:22;;;;;;;;;;;;;;;23.27;42.76;97173.27;1723097;83;20146;-79
2021/06/06 11:13:57;;;;;;;;;;;;;;;23.45;40.46;97172.70;1736061;82;20147;-80
2021/06/06 11:16:43;;;;;;;;;;;;;;;23.52;41.88;97172.72;1732895;82;20466;-79
2021/06/06 11:19:25;;;;;;;;;;;;;;;23.12;41.10;97179.30;1727054;82;20514;-81
2021/06/06 11:21:57;;;;;;;;;;;;;;;22.82;41.38;97178.23;1723217;83;20127;-83
2021/06/06 11:24:30;;;;;;;;;;;;;;;22.48;41.03;97173.20;1722333;83;20172;-81
2021/06/06 11:27:18;;;;;;;;;;;;;;;22.39;41.54;97165.28;1722566;82;20142;-80
2021/06/06 11:30:01;;;;;;;;;;;;;;;22.50;41.60;97169.30;1747398;80;20314;-79
2021/06/06 11:32:37;;;;;;;;;;;;;;;22.63;41.50;97159.13;1734708;82;20132;-80
2021/06/06 11:35:19;;;;;;;;;;;;;;;22.72;40.17;97159.28;1728980;83;20380;-79
2021/06/06 11:37:48;;;;;;;;;;;;;;;22.72;39.94;97152.56;1730954;83;20119;-81
2021/06/06 11:40:27;;;;;;;;;;;;;;;22.89;39.77;97146.84;1731562;81;20194;-81
2021/06/06 11:42:59;;;;;;;;;;;;;;;23.03;38.72;97137.81;1743705;82;20418;-79
2021/06/06 11:45:29;;;;;;;;;;;;;;;23.12;39.79;97134.94;1748308;81;20411;-81
2021/06/06 11:48:16;;;;;;;;;;;;;;;23.24;40.34;97136.05;1724750;83;20179;-81
2021/06/06 11:50:46;;;;;;;;;;;;;;;23.46;39.45;97140.75;1724883;82;20162;-81
2021/06/06 11:53:30;;;;;;;;;;;;;;;23.35;36.03;97134.09;1696270;83;20158;-80
2021/06/06 11:56:12;;;;;;;;;;;;;;;23.22;36.20;97139.45;1696130;83;20133;-80
2021/06/06 11:58:45;;;;;;;;;;;;;;;22.99;35.67;97127.14;1734637;81;20233;-80
2021/06/06 12:01:23;;;;;;;;;;;;;;;22.94;36.76;97132.31;1733114;81;20178;-80
2021/06/06 12:03:52;;;;;;;;;;;;;;;22.90;35.64;97118.45;1730264;83;20183;-80
2021/06/06 12:06:27;;;;;;;;;;;;;;;22.89;36.75;97112.75;1731926;83;20174;-80
2021/06/06 12:08:57;;;;;;;;;;;;;;;22.97;36.90;97111.73;1729582;81;20231;-79
2021/06/06 12:11:33;;;;;;;;;;;;;;;23.08;37.02;97109.80;1721676;81;20203;-77
2021/06/06 12:14:18;;;;;;;;;;;;;;;23.10;35.81;97104.24;1722456;83;20168;-79
2021/06/06 12:16:47;;;;;;;;;;;;;;;23.13;33.04;97108.38;1722341;83;20219;-82
2021/06/06 12:19:17;;;;;;;;;;;;;;;23.22;35.88;97096.44;1723922;82;20160;-82
2021/06/06 12:21:46;;;;;;;;;;;;;;;23.38;33.93;97095.22;1730361;83;20183;-79
2021/06/06 12:24:22;;;;;;;;;;;;;;;23.55;33.11;97096.97;1731996;82;20215;-79
2021/06/06 12:26:52;;;;;;;;;;;;;;;23.59;33.15;97092.01;1714641;83;20182;-79
2021/06/06 12:29:27;;;;;;;;;;;;;;;23.69;36.09;97089.23;1736194;81;20183;-80
2021/06/06 12:31:53;;;;;;;;;;;;;;;23.81;35.21;97087.23;1737112;80;20166;-80
2021/06/06 12:34:23;;;;;;;;;;;;;;;23.70;32.98;97081.48;1741900;82;20167;-78
2021/06/06 12:36:52;;;;;;;;;;;;;;;23.75;33.41;97085.39;1741206;82;20503;-82
2021/06/06 12:39:20;;;;;;;;;;;;;;;23.79;33.72;97086.11;1741809;82;21022;-81
2021/06/06 12:41:48;;;;;;;;;;;;;;;23.76;33.64;97091.09;1742481;82;20452;-79
2021/06/06 12:44:16;;;;;;;;;;;;;;;23.67;33.88;97083.23;1742692;82;20498;-80
2021/06/06 12:47:00;;;;;;;;;;;;;;;23.58;32.36;97079.09;1739757;82;20163;-84
2021/06/06 12:49:33;;;;;;;;;;;;;;;23.48;32.72;97075.45;1689297;85;20195;-80
2021/06/06 12:51:59;;;;;;;;;;;;;;;23.37;32.42;97076.90;1688753;85;20231;-83
2021/06/06 12:54:29;;;;;;;;;;;;;;;23.42;33.42;97074.94;1718546;82;20459;-79
2021/06/06 12:57:08;;;;;;;;;;;;;;;23.60;32.69;97079.72;1721551;82;20121;-80
2021/06/06 12:59:34;;;;;;;;;;;;;;;23.78;34.11;97078.26;1715936;82;20263;-82
2021/06/06 13:02:21;;;;;;;;;;;;;;;23.96;33.01;97079.83;1715989;84;20129;-81
2021/06/06 13:05:12;;;;;;;;;;;;;;;24.14;33.82;97079.69;1715631;84;20204;-80
2021/06/06 13:07:38;;;;;;;;;;;;;;;24.32;33.27;97081.19;1739091;81;20158;-80
2021/06/06 13:10:17;;;;;;;;;;;;;;;24.37;32.66;97085.94;1741981;82;20199;-86